Pagrindinis puslapis
METAR-TAF:

METAR-TAF

Oro uostai :

Ernšioldsvikas, Švedija

platuma: 63-24N, ilguma: 018-58E, Aukštis: 103 m

Dabartinis oras

Ataskaita buvo paskelbta 36 minutes, ne 22:50 UTC
Vėjas 6 kt iš Šiaurės Vakarų
Temperatūra 13°C
Drėgmė 67%
Slėgis 1000 hPa
Matomumas 10 km arba daugiau

METAR: ESNO 012250Z AUTO 32006KT 9999 BKN074/// 13/07 Q1000

Laikas: 01:26 (23:26 UTC)

Prognozė

Ataskaita buvo paskelbta 8 valandos ir 56 minutes, ne 14:30 UTC
Prognozė galioja nuo 01 metu 15 UTC su 01 metu 19 UTC
Vėjas 7 kt iš Šiaurės Vakarų
Matomumas 10 km arba daugiau
nėra debesų žemiau 1500 m ir nėra kamuolinių lietaus debesų

TAF: ESNO 011430Z 0115/0119 31007KT CAVOK

Orai ataskaitas ir orų prognozės (METAR, TAF).

turimą stotys yra geltonos ir raudonos taškus žemėlapyje.

Perkelti pele per norėdami pamatyti stoties vardą.

Tada spustelėkite, norėdami matyti oro stebėjimo ir prognozės.

Norėdami pakeisti žemėlapį: spustelėkite ant žalios mygtukų su juodo kryžiaus žemyn,; žalią mygtuką su brūkšneliu, jei norite nutolinti; arba žalių rodyklių gretimoms žemėlapius.


METAR-TAF: